createdAt,value
2019-03-28T00:02:23.458Z,9.48
2019-03-28T00:04:54.817Z,9.43
2019-03-28T00:07:25.121Z,9.49
2019-03-28T00:09:55.489Z,9.51
2019-03-28T00:12:25.989Z,9.53
2019-03-28T00:14:56.670Z,9.57
2019-03-28T00:17:27.148Z,9.59
2019-03-28T00:19:57.506Z,9.58
2019-03-28T00:22:38.579Z,9.57
2019-03-28T00:25:11.114Z,9.52
2019-03-28T00:27:41.459Z,9.53
2019-03-28T00:30:12.089Z,9.54
2019-03-28T00:32:42.412Z,9.54
2019-03-28T00:35:13.073Z,9.53
2019-03-28T00:37:43.428Z,9.53
2019-03-28T00:40:14.128Z,9.51
2019-03-28T00:42:44.417Z,9.47
2019-03-28T00:45:15.148Z,9.42
2019-03-28T00:47:45.596Z,9.40
2019-03-28T00:50:16.128Z,9.41
2019-03-28T00:52:46.659Z,9.39
2019-03-28T00:55:17.053Z,9.37
2019-03-28T00:57:47.727Z,9.35
2019-03-28T01:00:18.797Z,9.38
2019-03-28T01:02:49.277Z,9.37
2019-03-28T01:05:19.682Z,9.40
2019-03-28T01:07:50.193Z,9.40
2019-03-28T01:10:20.656Z,9.41
2019-03-28T01:12:51.257Z,9.38
2019-03-28T01:15:21.892Z,9.36
2019-03-28T01:17:52.289Z,9.33
2019-03-28T01:20:22.635Z,9.32
2019-03-28T01:22:53.324Z,9.31
2019-03-28T01:25:24.319Z,9.31
2019-03-28T01:27:54.668Z,9.33
2019-03-28T01:30:25.142Z,9.35
2019-03-28T01:32:55.532Z,9.36
2019-03-28T01:35:25.975Z,9.38
2019-03-28T01:37:56.385Z,9.36
2019-03-28T01:40:26.812Z,9.37
2019-03-28T01:42:57.138Z,9.37
2019-03-28T01:45:28.043Z,9.38
2019-03-28T01:47:58.742Z,9.38
2019-03-28T01:50:29.192Z,9.38
2019-03-28T01:52:59.548Z,9.37
2019-03-28T01:55:29.982Z,9.36
2019-03-28T01:58:00.298Z,9.34
2019-03-28T02:00:30.902Z,9.34
2019-03-28T02:03:01.251Z,9.33
2019-03-28T02:05:31.688Z,9.34
2019-03-28T02:08:02.849Z,9.35
2019-03-28T02:10:33.370Z,9.32
2019-03-28T02:13:03.798Z,9.29
2019-03-28T02:15:34.459Z,9.28
2019-03-28T02:18:05.282Z,9.29
2019-03-28T02:20:36.175Z,9.28
2019-03-28T02:23:06.574Z,9.30
2019-03-28T02:25:37.049Z,9.28
2019-03-28T02:28:07.538Z,9.25
2019-03-28T02:30:38.918Z,9.26
2019-03-28T02:33:09.218Z,9.28
2019-03-28T02:35:39.953Z,9.28
2019-03-28T02:38:10.381Z,9.26
2019-03-28T02:40:40.673Z,9.25
2019-03-28T02:43:11.565Z,9.26
2019-03-28T02:45:43.154Z,9.29
2019-03-28T02:48:13.585Z,9.27
2019-03-28T02:50:43.996Z,9.28
2019-03-28T02:53:14.410Z,9.23
2019-03-28T02:55:44.846Z,9.21
2019-03-28T02:58:15.175Z,9.18
2019-03-28T03:00:45.755Z,9.19
2019-03-28T03:03:16.266Z,9.20
2019-03-28T03:05:46.593Z,9.17
2019-03-28T03:08:17.055Z,9.12
2019-03-28T03:10:47.554Z,9.11
2019-03-28T03:13:18.076Z,9.12
2019-03-28T03:15:48.447Z,9.08
2019-03-28T03:18:21.415Z,9.06
2019-03-28T03:20:51.926Z,9.05
2019-03-28T03:23:22.301Z,9.05
2019-03-28T03:25:52.654Z,9.05
2019-03-28T03:28:23.000Z,9.03
2019-03-28T03:30:53.440Z,9.03
2019-03-28T03:33:23.877Z,9.06
2019-03-28T03:35:54.236Z,9.05
2019-03-28T03:38:24.633Z,9.06
2019-03-28T03:40:55.121Z,9.03
2019-03-28T03:43:25.821Z,8.99
2019-03-28T03:45:56.478Z,8.96
2019-03-28T03:48:26.824Z,8.91
2019-03-28T03:50:57.119Z,8.90
2019-03-28T03:53:28.505Z,8.94
2019-03-28T03:55:58.896Z,8.97
2019-03-28T03:58:29.194Z,8.92
2019-03-28T04:00:59.598Z,8.86
2019-03-28T04:03:29.993Z,8.86
2019-03-28T04:06:00.333Z,8.84
2019-03-28T04:08:30.678Z,8.84
2019-03-28T04:11:00.974Z,8.84
2019-03-28T04:13:31.355Z,8.83
2019-03-28T04:16:01.867Z,8.85
2019-03-28T04:18:32.140Z,8.89
2019-03-28T04:21:02.538Z,8.87
2019-03-28T04:23:32.979Z,8.88
2019-03-28T04:26:03.274Z,8.87
2019-03-28T04:28:33.572Z,8.85
2019-03-28T04:31:03.871Z,8.80
2019-03-28T04:33:35.757Z,8.78
2019-03-28T04:36:06.305Z,8.78
2019-03-28T04:38:36.622Z,8.75
2019-03-28T04:41:07.146Z,8.78
2019-03-28T04:43:37.450Z,8.76
2019-03-28T04:46:07.860Z,8.74
2019-03-28T04:48:38.272Z,8.76
2019-03-28T04:51:11.664Z,8.82
2019-03-28T04:53:41.937Z,8.87
2019-03-28T04:56:12.490Z,8.86
2019-03-28T04:58:44.874Z,8.89
2019-03-28T05:01:15.441Z,8.91
2019-03-28T05:03:45.874Z,8.93
2019-03-28T05:06:16.289Z,8.91
2019-03-28T05:08:46.746Z,8.90
2019-03-28T05:11:17.185Z,8.91
2019-03-28T05:13:47.779Z,8.93
2019-03-28T05:16:19.143Z,8.93
2019-03-28T05:18:49.549Z,8.94
2019-03-28T05:21:19.988Z,8.93
2019-03-28T05:23:50.276Z,8.92
2019-03-28T05:26:20.598Z,8.95
2019-03-28T05:28:57.340Z,8.94
2019-03-28T05:31:23.150Z,8.95
2019-03-28T05:33:53.569Z,8.96
2019-03-28T05:36:24.041Z,8.96
2019-03-28T05:38:54.500Z,8.97
2019-03-28T05:41:24.791Z,8.94
2019-03-28T05:43:55.183Z,8.98
2019-03-28T05:46:25.924Z,9.01
2019-03-28T05:48:56.271Z,9.06
2019-03-28T05:51:26.588Z,9.07
2019-03-28T05:53:57.018Z,9.05
2019-03-28T05:56:27.568Z,9.07
2019-03-28T05:59:10.182Z,8.88
2019-03-28T06:01:30.728Z,9.17
2019-03-28T06:04:01.122Z,9.25
2019-03-28T06:06:31.906Z,9.29
2019-03-28T06:09:02.428Z,9.39
2019-03-28T06:11:33.027Z,9.47
2019-03-28T06:14:03.568Z,9.47
2019-03-28T06:16:33.949Z,9.47
2019-03-28T06:19:04.384Z,9.54
2019-03-28T06:21:34.857Z,9.54
2019-03-28T06:24:05.514Z,9.62
2019-03-28T06:26:36.268Z,9.69
2019-03-28T06:29:08.607Z,9.77
2019-03-28T06:31:39.051Z,9.80
2019-03-28T06:34:09.782Z,9.82
2019-03-28T06:36:40.512Z,9.84
2019-03-28T06:39:10.968Z,9.83
2019-03-28T06:41:44.205Z,9.81
2019-03-28T06:44:13.592Z,9.87
2019-03-28T06:46:44.016Z,9.86
2019-03-28T06:49:14.647Z,9.77
2019-03-28T06:51:45.159Z,9.69
2019-03-28T06:54:15.747Z,9.66
2019-03-28T06:56:46.161Z,9.70
2019-03-28T06:59:16.467Z,9.68
2019-03-28T07:01:46.828Z,9.67
2019-03-28T07:04:17.325Z,9.65
2019-03-28T07:06:47.981Z,9.68
2019-03-28T07:09:18.560Z,9.71
2019-03-28T07:11:49.215Z,9.73
2019-03-28T07:14:23.048Z,9.81
2019-03-28T07:16:53.656Z,9.85
2019-03-28T07:19:24.081Z,9.87
2019-03-28T07:21:54.968Z,9.91
2019-03-28T07:24:25.667Z,9.97
2019-03-28T07:26:56.068Z,9.99
2019-03-28T07:29:26.534Z,10.02
2019-03-28T07:31:56.960Z,9.96
2019-03-28T07:34:27.357Z,9.87
2019-03-28T07:36:57.784Z,9.89
2019-03-28T07:39:28.326Z,10.03
2019-03-28T07:41:58.754Z,10.19
2019-03-28T07:44:29.126Z,10.18
2019-03-28T07:46:59.594Z,10.09
2019-03-28T07:49:29.948Z,10.09
2019-03-28T07:52:00.321Z,10.19
2019-03-28T07:54:30.835Z,10.30
2019-03-28T07:57:01.316Z,10.32
2019-03-28T07:59:31.914Z,10.42
2019-03-28T08:02:02.253Z,10.54
2019-03-28T08:04:32.537Z,10.57
2019-03-28T08:07:02.995Z,10.56
2019-03-28T08:09:36.819Z,10.51
2019-03-28T08:12:21.441Z,10.39
2019-03-28T08:14:39.191Z,10.23
2019-03-28T08:17:09.544Z,10.32
2019-03-28T08:19:41.557Z,10.24
2019-03-28T08:22:12.019Z,10.28
2019-03-28T08:24:42.996Z,10.29
2019-03-28T08:27:13.499Z,10.29
2019-03-28T08:29:44.049Z,10.25
2019-03-28T08:32:17.537Z,10.30
2019-03-28T08:34:48.003Z,10.39
2019-03-28T08:37:18.735Z,10.44
2019-03-28T08:39:49.141Z,10.44
2019-03-28T08:42:19.966Z,10.51
2019-03-28T08:44:50.672Z,10.64
2019-03-28T08:47:21.026Z,10.78
2019-03-28T08:49:51.416Z,10.92
2019-03-28T08:52:21.752Z,11.04
2019-03-28T08:54:52.387Z,11.11
2019-03-28T08:57:22.885Z,11.21
2019-03-28T08:59:53.545Z,11.37
2019-03-28T09:02:25.681Z,11.46
2019-03-28T09:04:56.143Z,11.58
2019-03-28T09:07:26.621Z,11.66
2019-03-28T09:09:58.186Z,11.68
2019-03-28T09:12:35.147Z,11.70
2019-03-28T09:15:06.255Z,11.69
2019-03-28T09:17:36.705Z,11.70
2019-03-28T09:20:08.706Z,11.69
2019-03-28T09:22:39.359Z,11.85
2019-03-28T09:25:10.312Z,12.01
2019-03-28T09:27:40.739Z,12.12
2019-03-28T09:30:13.074Z,12.28
2019-03-28T09:32:43.725Z,12.48
2019-03-28T09:35:19.237Z,12.63
2019-03-28T09:37:50.701Z,12.69
2019-03-28T09:40:21.123Z,12.53
2019-03-28T09:42:51.634Z,12.45
2019-03-28T09:45:22.083Z,12.53
2019-03-28T09:47:52.448Z,12.54
2019-03-28T09:50:22.918Z,12.44
2019-03-28T09:52:53.293Z,12.45
2019-03-28T09:55:23.825Z,12.61
2019-03-28T09:57:54.444Z,12.66
2019-03-28T10:00:25.017Z,12.71
2019-03-28T10:02:55.498Z,12.87
2019-03-28T10:05:25.917Z,13.15
2019-03-28T10:07:56.476Z,13.42
2019-03-28T10:10:26.982Z,13.48
2019-03-28T10:12:57.762Z,13.55
2019-03-28T10:15:28.607Z,13.79
2019-03-28T10:17:59.144Z,13.63
2019-03-28T10:20:29.437Z,13.42
2019-03-28T10:22:59.820Z,13.36
2019-03-28T10:25:30.271Z,13.11
2019-03-28T10:28:00.702Z,13.15
2019-03-28T10:30:42.094Z,13.35
2019-03-28T10:33:12.680Z,13.54
2019-03-28T10:35:43.256Z,13.67
2019-03-28T10:38:13.674Z,13.65
2019-03-28T10:40:44.025Z,13.73
2019-03-28T10:43:14.513Z,13.89
2019-03-28T10:45:45.003Z,14.09
2019-03-28T10:48:15.398Z,14.22
2019-03-28T10:50:46.242Z,14.32
2019-03-28T10:53:16.845Z,14.17
2019-03-28T10:55:47.391Z,14.28
2019-03-28T10:58:19.345Z,14.62
2019-03-28T11:00:50.064Z,14.59
2019-03-28T11:03:20.629Z,14.18
2019-03-28T11:05:51.034Z,13.84
2019-03-28T11:08:21.442Z,13.68
2019-03-28T11:10:52.818Z,14.07
2019-03-28T11:13:23.152Z,14.73
2019-03-28T11:15:53.853Z,15.04
2019-03-28T11:18:24.148Z,14.83
2019-03-28T11:20:54.596Z,14.51
2019-03-28T11:23:24.924Z,14.30
2019-03-28T11:25:57.313Z,14.11
2019-03-28T11:28:27.503Z,13.91
2019-03-28T11:30:58.972Z,13.87
2019-03-28T11:33:29.347Z,13.79
2019-03-28T11:35:59.720Z,13.73
2019-03-28T11:38:30.081Z,13.65
2019-03-28T11:41:00.609Z,13.61
2019-03-28T11:43:31.084Z,13.58
2019-03-28T11:46:02.022Z,13.63
2019-03-28T11:48:32.360Z,13.82
2019-03-28T11:51:03.095Z,14.00
2019-03-28T11:53:33.747Z,14.18
2019-03-28T11:56:04.505Z,14.40
2019-03-28T11:58:34.851Z,14.69
2019-03-28T12:01:05.530Z,14.68
2019-03-28T12:03:35.917Z,14.62
2019-03-28T12:06:06.312Z,14.60
2019-03-28T12:08:37.954Z,14.30
2019-03-28T12:11:08.305Z,14.14
2019-03-28T12:13:44.852Z,14.14
2019-03-28T12:16:10.763Z,14.11
2019-03-28T12:18:41.068Z,14.13
2019-03-28T12:21:11.460Z,14.08
2019-03-28T12:23:41.891Z,14.20
2019-03-28T12:26:12.659Z,14.32
2019-03-28T12:28:43.263Z,14.29
2019-03-28T12:31:13.738Z,14.32
2019-03-28T12:33:44.335Z,14.29
2019-03-28T12:36:15.225Z,14.27
2019-03-28T12:38:45.537Z,14.16
2019-03-28T12:41:16.380Z,14.00
2019-03-28T12:43:47.119Z,13.91
2019-03-28T12:46:17.542Z,13.94
2019-03-28T12:48:48.310Z,13.94
2019-03-28T12:51:18.642Z,13.86
2019-03-28T12:53:49.395Z,13.75
2019-03-28T12:56:20.776Z,13.78
2019-03-28T12:58:51.198Z,13.79
2019-03-28T13:01:21.546Z,13.74
2019-03-28T13:03:51.842Z,13.78
2019-03-28T13:06:22.663Z,14.02
2019-03-28T13:08:52.950Z,14.08
2019-03-28T13:11:23.347Z,14.24
2019-03-28T13:13:53.772Z,14.32
2019-03-28T13:16:24.255Z,14.45
2019-03-28T13:18:55.073Z,14.50
2019-03-28T13:21:25.600Z,14.33
2019-03-28T13:23:55.916Z,14.18
2019-03-28T13:26:26.651Z,14.17
2019-03-28T13:28:57.474Z,14.17
2019-03-28T13:31:27.990Z,14.10
2019-03-28T13:34:01.376Z,14.08
2019-03-28T13:36:32.528Z,13.96
2019-03-28T13:39:02.856Z,14.00
2019-03-28T13:41:33.473Z,14.16
2019-03-28T13:44:03.907Z,14.28
2019-03-28T13:46:34.401Z,14.43
2019-03-28T13:49:05.144Z,14.40
2019-03-28T13:51:35.674Z,14.36
2019-03-28T13:54:05.989Z,14.27
2019-03-28T13:56:38.539Z,14.27
2019-03-28T13:59:08.477Z,14.34
2019-03-28T14:01:39.068Z,14.41
2019-03-28T14:04:09.419Z,14.26
2019-03-28T14:06:40.278Z,14.16
2019-03-28T14:09:10.797Z,13.98
2019-03-28T14:11:41.143Z,13.65
2019-03-28T14:14:11.524Z,13.83
2019-03-28T14:16:41.952Z,13.80
2019-03-28T14:19:12.348Z,13.72
2019-03-28T14:21:42.778Z,13.68
2019-03-28T14:24:13.608Z,13.69
2019-03-28T14:26:43.906Z,13.67
2019-03-28T14:29:14.350Z,13.63
2019-03-28T14:31:45.002Z,13.63
2019-03-28T14:34:15.666Z,13.55
2019-03-28T14:36:46.189Z,13.50
2019-03-28T14:39:16.628Z,13.47
2019-03-28T14:41:47.259Z,13.36
2019-03-28T14:44:17.673Z,13.31
2019-03-28T14:46:48.103Z,13.27
2019-03-28T14:49:18.860Z,13.22
2019-03-28T14:51:49.346Z,13.24
2019-03-28T14:54:20.025Z,13.34
2019-03-28T14:56:52.613Z,13.49
2019-03-28T14:59:32.308Z,13.62
2019-03-28T15:01:56.178Z,13.67
2019-03-28T15:04:27.205Z,13.66
2019-03-28T15:06:57.602Z,13.69
2019-03-28T15:09:28.039Z,13.77
2019-03-28T15:11:58.470Z,13.79
2019-03-28T15:14:28.942Z,13.82
2019-03-28T15:16:59.373Z,13.98
2019-03-28T15:19:29.777Z,14.04
2019-03-28T15:22:00.246Z,14.03
2019-03-28T15:24:31.550Z,13.96
2019-03-28T15:27:02.522Z,13.87
2019-03-28T15:29:33.634Z,13.90
2019-03-28T15:32:04.046Z,13.85
2019-03-28T15:34:34.452Z,13.91
2019-03-28T15:37:05.054Z,14.01
2019-03-28T15:39:35.415Z,13.98
2019-03-28T15:42:05.898Z,13.86
2019-03-28T15:44:39.180Z,13.84
2019-03-28T15:47:08.299Z,13.76
2019-03-28T15:49:38.673Z,13.75
2019-03-28T15:52:09.102Z,13.71
2019-03-28T15:54:39.824Z,13.60
2019-03-28T15:57:10.300Z,13.53
2019-03-28T15:59:41.714Z,13.52
2019-03-28T16:02:12.099Z,13.46
2019-03-28T16:04:42.500Z,13.48
2019-03-28T16:07:12.934Z,13.50
2019-03-28T16:09:43.273Z,13.44
2019-03-28T16:12:13.639Z,13.44
2019-03-28T16:14:44.078Z,13.42
2019-03-28T16:17:14.453Z,13.42
2019-03-28T16:19:45.298Z,13.41
2019-03-28T16:22:15.821Z,13.33
2019-03-28T16:24:46.598Z,13.29
2019-03-28T16:27:22.111Z,13.27
2019-03-28T16:29:55.703Z,13.29
2019-03-28T16:32:26.161Z,13.27
2019-03-28T16:34:56.572Z,13.24
2019-03-28T16:37:27.672Z,13.19
2019-03-28T16:39:58.316Z,13.10
2019-03-28T16:42:28.661Z,13.07
2019-03-28T16:44:59.077Z,13.01
2019-03-28T16:47:29.589Z,13.00
2019-03-28T16:50:00.027Z,12.99
2019-03-28T16:52:32.196Z,12.94
2019-03-28T16:55:02.953Z,12.94
2019-03-28T16:57:34.391Z,12.92
2019-03-28T17:00:08.229Z,12.88
2019-03-28T17:02:40.237Z,12.87
2019-03-28T17:05:11.056Z,12.85
2019-03-28T17:07:42.627Z,12.89
2019-03-28T17:10:19.617Z,12.88
2019-03-28T17:12:50.730Z,12.85
2019-03-28T17:15:21.097Z,12.86
2019-03-28T17:17:54.945Z,12.87
2019-03-28T17:20:28.489Z,12.83
2019-03-28T17:22:59.121Z,12.79
2019-03-28T17:25:29.634Z,12.75
2019-03-28T17:28:00.174Z,12.74
2019-03-28T17:30:30.866Z,12.74
2019-03-28T17:33:01.185Z,12.74
2019-03-28T17:35:31.632Z,12.70
2019-03-28T17:38:02.622Z,12.66
2019-03-28T17:40:32.915Z,12.60
2019-03-28T17:43:03.394Z,12.58
2019-03-28T17:45:34.208Z,12.53
2019-03-28T17:48:04.808Z,12.45
2019-03-28T17:50:35.406Z,12.43
2019-03-28T17:53:06.062Z,12.40
2019-03-28T17:55:36.928Z,12.36
2019-03-28T17:58:08.526Z,12.32
2019-03-28T18:00:39.591Z,12.29
2019-03-28T18:03:10.127Z,12.32
2019-03-28T18:05:42.527Z,12.28
2019-03-28T18:08:13.121Z,12.23
2019-03-28T18:10:43.839Z,12.23
2019-03-28T18:13:15.530Z,12.20
2019-03-28T18:15:45.993Z,12.20
2019-03-28T18:18:16.449Z,12.21
2019-03-28T18:20:47.223Z,12.19
2019-03-28T18:23:17.647Z,12.21
2019-03-28T18:25:48.054Z,12.19
2019-03-28T18:28:18.443Z,12.14
2019-03-28T18:30:48.951Z,12.12
2019-03-28T18:33:19.365Z,12.12
2019-03-28T18:35:49.923Z,12.12
2019-03-28T18:38:20.555Z,12.09
2019-03-28T18:40:51.228Z,12.09
2019-03-28T18:43:22.283Z,12.09
2019-03-28T18:45:52.774Z,12.09
2019-03-28T18:48:30.746Z,12.08
2019-03-28T18:50:56.279Z,12.09
2019-03-28T18:53:26.716Z,12.08
2019-03-28T18:56:04.125Z,12.07
2019-03-28T18:58:37.533Z,12.07
2019-03-28T19:01:07.893Z,12.09
2019-03-28T19:03:38.355Z,12.06
2019-03-28T19:06:08.726Z,12.07
2019-03-28T19:08:39.212Z,12.08
2019-03-28T19:11:09.784Z,12.13
2019-03-28T19:13:40.130Z,12.15
2019-03-28T19:16:10.731Z,12.15
2019-03-28T19:18:42.020Z,12.15
2019-03-28T19:21:12.403Z,12.15
2019-03-28T19:23:42.831Z,12.17
2019-03-28T19:26:13.367Z,12.15
2019-03-28T19:28:44.088Z,12.15
2019-03-28T19:31:14.655Z,11.92
2019-03-28T19:33:45.463Z,12.14
2019-03-28T19:36:16.606Z,12.15
2019-03-28T19:38:47.574Z,12.12
2019-03-28T19:41:18.050Z,12.12
2019-03-28T19:43:48.607Z,12.11
2019-03-28T19:46:20.591Z,12.09
2019-03-28T19:48:51.032Z,12.07
2019-03-28T19:51:21.647Z,12.08
2019-03-28T19:53:52.046Z,12.09
2019-03-28T19:56:22.606Z,12.08
2019-03-28T19:58:53.179Z,12.03
2019-03-28T20:01:23.713Z,11.96
2019-03-28T20:03:55.176Z,11.93
2019-03-28T20:06:25.808Z,11.92
2019-03-28T20:08:56.178Z,11.91
2019-03-28T20:11:26.877Z,11.90
2019-03-28T20:13:57.711Z,11.89
2019-03-28T20:16:28.107Z,11.86
2019-03-28T20:18:59.329Z,11.87
2019-03-28T20:21:29.705Z,11.88
2019-03-28T20:24:00.144Z,11.81
2019-03-28T20:26:30.609Z,11.80
2019-03-28T20:29:00.985Z,11.80
2019-03-28T20:31:31.328Z,11.80
2019-03-28T20:34:02.035Z,11.80
2019-03-28T20:36:38.509Z,11.78
2019-03-28T20:39:08.607Z,11.77
2019-03-28T20:41:39.691Z,11.75
2019-03-28T20:44:11.656Z,11.78
2019-03-28T20:46:42.215Z,11.83
2019-03-28T20:49:12.559Z,11.81
2019-03-28T20:51:42.908Z,11.69
2019-03-28T20:54:14.354Z,11.59
2019-03-28T20:56:44.755Z,11.55
2019-03-28T20:59:15.138Z,11.62
2019-03-28T21:01:45.550Z,11.58
2019-03-28T21:04:30.335Z,11.56
2019-03-28T21:06:48.935Z,11.56
2019-03-28T21:09:19.490Z,11.62
2019-03-28T21:11:52.746Z,11.61
2019-03-28T21:14:23.129Z,11.59
2019-03-28T21:16:53.596Z,11.64
2019-03-28T21:19:23.963Z,11.72
2019-03-28T21:21:55.011Z,11.76
2019-03-28T21:24:25.797Z,11.79
2019-03-28T21:26:56.160Z,11.82
2019-03-28T21:29:26.629Z,11.80
2019-03-28T21:31:57.386Z,11.69
2019-03-28T21:34:27.796Z,11.64
2019-03-28T21:36:58.876Z,11.55
2019-03-28T21:39:29.396Z,11.48
2019-03-28T21:41:59.903Z,11.46
2019-03-28T21:44:30.271Z,11.44
2019-03-28T21:47:00.590Z,11.41
2019-03-28T21:49:31.093Z,11.41
2019-03-28T21:52:01.450Z,11.40
2019-03-28T21:54:32.105Z,11.39
2019-03-28T21:57:02.611Z,11.41
2019-03-28T21:59:32.955Z,11.44
2019-03-28T22:02:03.290Z,11.45
2019-03-28T22:04:34.920Z,11.46
2019-03-28T22:07:05.431Z,11.44
2019-03-28T22:09:35.894Z,11.49
2019-03-28T22:12:06.465Z,11.54
2019-03-28T22:14:37.595Z,11.62
2019-03-28T22:17:08.143Z,11.63
2019-03-28T22:19:38.622Z,11.64
2019-03-28T22:22:09.468Z,11.66
2019-03-28T22:24:39.834Z,11.66
2019-03-28T22:27:10.435Z,11.65
2019-03-28T22:29:40.750Z,11.68
2019-03-28T22:32:11.872Z,11.67
2019-03-28T22:34:50.282Z,11.67
2019-03-28T22:37:20.369Z,11.67
2019-03-28T22:39:50.912Z,11.70
2019-03-28T22:42:21.492Z,11.72
2019-03-28T22:44:51.902Z,11.64
2019-03-28T22:47:23.168Z,11.56
2019-03-28T22:49:53.502Z,11.54
2019-03-28T22:52:25.141Z,11.54
2019-03-28T22:54:58.200Z,11.60
2019-03-28T22:57:28.617Z,11.61
2019-03-28T22:59:58.981Z,11.65
2019-03-28T23:02:29.402Z,11.70
2019-03-28T23:04:59.884Z,11.76
2019-03-28T23:07:30.191Z,11.80
2019-03-28T23:10:00.635Z,11.81
2019-03-28T23:12:31.124Z,11.83
2019-03-28T23:15:02.139Z,11.85
2019-03-28T23:17:32.684Z,11.81
2019-03-28T23:20:03.101Z,11.81
2019-03-28T23:22:33.986Z,11.82
2019-03-28T23:25:04.749Z,11.82
2019-03-28T23:27:35.590Z,11.81
2019-03-28T23:30:07.594Z,11.81
2019-03-28T23:32:39.327Z,11.83
2019-03-28T23:35:11.053Z,11.77
2019-03-28T23:37:41.643Z,11.76
2019-03-28T23:40:12.304Z,11.79
2019-03-28T23:42:43.999Z,11.82
2019-03-28T23:45:14.861Z,11.84
2019-03-28T23:47:45.333Z,11.84
2019-03-28T23:50:16.919Z,11.80
2019-03-28T23:52:48.185Z,11.79
2019-03-28T23:55:21.315Z,11.80
2019-03-28T23:57:51.624Z,11.81
